Apache, Nevada
Current Conditions -  °F | °C
As of 3:56 AM on Friday 24 Oct 2014 (Local Time) from KWMC Reporting Station
Clear Clear  
Wind Chill:   Ceiling: Unl
Heat Index:   Visibility: 10mi
Dew Point: -1°   Wind: 8mph
Humidity: 70%   Direction: 110°ESE
Pressure: 30.07"   Gusts: NA
Location:  40.601°N, 117.984°W
Report Text: KWMC 241056Z AUTO 11007KT 10SM CLR 04/M01 A3007 RMK AO2 SLP168 T00391011
Loading
Personal Weather Stations






























Interactive Weather Map
Tropical Storm Tracking
New forecast layout! Learn more

10-Day Weather Forecast

Advertisements
Track Severe Weather on mobile